Time;durP1;ratioP1;P1;durP2;ratioP2;P2;SDS_P1;SDS_P2;PMS_P1;PMS_P2;Temp;Humidity;BMP_temperature;BMP_pressure;BME280_temperature;BME280_humidity;BME280_pressure;Samples;Min_cycle;Max_cycle;Signal;HPM_P1;HPM_P2
2022/09/19 00:01:32;;;;;;;8.93;5.13;;;;;;;8.77;100.00;94755.44;5146401;27;20198;-76
2022/09/19 00:04:02;;;;;;;8.83;4.87;;;;;;;8.76;100.00;94748.66;5154004;27;20219;-76
2022/09/19 00:06:30;;;;;;;9.30;4.90;;;;;;;8.76;100.00;94753.03;5153460;27;20198;-77
2022/09/19 00:08:59;;;;;;;9.03;4.60;;;;;;;8.67;100.00;94747.28;5153458;27;20210;-77
2022/09/19 00:11:26;;;;;;;7.63;5.27;;;;;;;8.67;100.00;94742.09;5147324;27;20196;-77
2022/09/19 00:13:56;;;;;;;12.30;5.63;;;;;;;8.67;100.00;94730.94;5154174;27;20657;-77
2022/09/19 00:16:27;;;;;;;7.23;5.57;;;;;;;8.67;100.00;94733.53;5147795;27;20247;-78
2022/09/19 00:18:56;;;;;;;9.60;5.40;;;;;;;8.68;100.00;94728.16;5153211;27;20199;-77
2022/09/19 00:21:25;;;;;;;10.37;5.83;;;;;;;8.67;100.00;94734.34;5154089;27;20197;-75
2022/09/19 00:26:43;;;;;;;11.90;5.63;;;;;;;8.61;100.00;94734.34;5137554;27;20569;-76
2022/09/19 00:29:10;;;;;;;9.17;5.27;;;;;;;8.54;100.00;94724.78;5144201;27;20200;-76
2022/09/19 00:31:38;;;;;;;11.33;5.23;;;;;;;8.53;100.00;94728.41;5139372;27;20199;-76
2022/09/19 00:34:09;;;;;;;7.90;5.60;;;;;;;8.49;100.00;94732.38;5153989;27;20190;-76
2022/09/19 00:36:36;;;;;;;7.63;5.53;;;;;;;8.48;100.00;94730.03;5115873;27;20285;-76
2022/09/19 00:39:05;;;;;;;10.70;5.83;;;;;;;8.48;100.00;94730.03;5150225;27;20202;-75
2022/09/19 00:41:33;;;;;;;10.43;5.50;;;;;;;8.42;100.00;94730.81;5153301;27;20198;-75
2022/09/19 00:44:02;;;;;;;10.87;5.30;;;;;;;8.42;100.00;94731.63;5134014;27;20242;-76
2022/09/19 00:46:31;;;;;;;7.37;5.50;;;;;;;8.33;100.00;94735.41;5151363;27;20205;-75
2022/09/19 00:49:03;;;;;;;12.50;5.53;;;;;;;8.34;100.00;94733.63;5149038;27;20206;-76
2022/09/19 00:51:34;;;;;;;6.67;5.23;;;;;;;8.30;100.00;94738.41;5135285;27;20223;-77
2022/09/19 00:54:05;;;;;;;8.10;5.63;;;;;;;8.26;100.00;94744.94;5144056;27;20191;-77
2022/09/19 00:56:33;;;;;;;10.40;5.67;;;;;;;8.24;100.00;94736.59;5146600;27;20207;-76
2022/09/19 00:59:02;;;;;;;8.00;5.20;;;;;;;8.24;100.00;94735.78;5145630;27;20202;-76
2022/09/19 01:01:30;;;;;;;9.33;5.30;;;;;;;8.18;100.00;94734.81;5125593;27;20219;-77
2022/09/19 01:03:57;;;;;;;14.50;5.23;;;;;;;8.12;100.00;94727.84;5125056;27;20760;-76
2022/09/19 01:06:40;;;;;;;8.67;4.97;;;;;;;8.17;100.00;94719.47;5143085;27;20210;-76
2022/09/19 01:09:35;;;;;;;8.97;4.97;;;;;;;8.19;100.00;94720.88;5146668;27;20198;-77
2022/09/19 01:12:28;;;;;;;6.47;4.33;;;;;;;8.23;100.00;94722.06;5138490;27;20202;-77
2022/09/19 01:15:19;;;;;;;6.33;4.80;;;;;;;8.25;100.00;94732.22;5152564;27;20205;-78
2022/09/19 01:17:48;;;;;;;7.10;4.97;;;;;;;8.21;100.00;94725.84;5152310;27;20217;-77
2022/09/19 01:20:55;;;;;;;10.17;5.50;;;;;;;8.15;100.00;94724.84;5131119;27;20195;-77
2022/09/19 01:23:42;;;;;;;9.70;4.37;;;;;;;8.20;100.00;94725.03;5146402;27;20202;-77
2022/09/19 01:26:34;;;;;;;7.20;4.70;;;;;;;8.24;100.00;94728.03;5151854;27;20281;-77
2022/09/19 01:29:08;;;;;;;5.27;4.10;;;;;;;8.22;100.00;94728.25;5151549;27;20202;-77
2022/09/19 01:31:39;;;;;;;6.67;4.43;;;;;;;8.10;100.00;94724.66;5152678;27;20203;-77
2022/09/19 01:34:12;;;;;;;7.20;5.33;;;;;;;8.06;100.00;94717.50;5152221;27;20205;-77
2022/09/19 01:36:46;;;;;;;6.10;4.60;;;;;;;8.04;100.00;94715.13;5153058;27;20294;-77
2022/09/19 01:39:16;;;;;;;6.77;4.30;;;;;;;8.02;100.00;94714.53;5140726;27;20247;-76
2022/09/19 01:41:48;;;;;;;7.90;4.73;;;;;;;8.02;100.00;94712.72;5150731;27;20753;-76
2022/09/19 01:44:19;;;;;;;6.90;4.60;;;;;;;7.96;100.00;94720.50;5132905;27;20656;-78
2022/09/19 01:46:53;;;;;;;6.03;4.60;;;;;;;7.94;100.00;94717.28;5152722;27;20198;-78
2022/09/19 01:49:36;;;;;;;7.27;5.07;;;;;;;7.93;100.00;94720.91;5153374;27;20205;-78
2022/09/19 01:52:14;;;;;;;6.80;4.80;;;;;;;7.91;100.00;94723.66;5144098;27;20220;-78
2022/09/19 01:54:49;;;;;;;7.23;5.53;;;;;;;7.87;100.00;94717.31;5140428;27;20622;-78
2022/09/19 01:57:31;;;;;;;7.53;5.10;;;;;;;7.80;100.00;94719.09;5152564;27;20190;-78
2022/09/19 02:00:13;;;;;;;8.70;5.33;;;;;;;7.87;100.00;94717.31;5152579;27;20620;-77
2022/09/19 02:02:53;;;;;;;6.43;5.07;;;;;;;7.88;100.00;94724.06;5152669;27;20203;-78
2022/09/19 02:05:35;;;;;;;9.03;4.87;;;;;;;7.88;100.00;94715.50;5145619;27;20222;-78
2022/09/19 02:08:09;;;;;;;15.30;5.77;;;;;;;7.84;100.00;94720.31;5152003;27;20204;-78
2022/09/19 02:10:41;;;;;;;8.93;5.33;;;;;;;7.80;100.00;94708.75;5148564;27;20280;-78
2022/09/19 02:13:10;;;;;;;11.27;5.17;;;;;;;7.85;100.00;94708.16;5152213;27;20217;-78
2022/09/19 02:15:46;;;;;;;9.83;5.40;;;;;;;7.86;100.00;94707.16;5152043;27;20692;-78
2022/09/19 02:18:24;;;;;;;6.57;4.83;;;;;;;7.67;100.00;94711.34;5147647;27;20201;-78
2022/09/19 02:20:56;;;;;;;10.17;5.00;;;;;;;7.76;100.00;94704.19;5151525;27;20266;-78
2022/09/19 02:23:28;;;;;;;13.63;5.80;;;;;;;7.75;100.00;94700.78;5152202;27;20251;-78
2022/09/19 02:25:58;;;;;;;6.80;5.03;;;;;;;7.72;100.00;94702.97;5152295;27;20210;-78
2022/09/19 02:28:32;;;;;;;8.30;4.90;;;;;;;7.72;100.00;94706.38;5152976;27;20221;-79
2022/09/19 02:31:01;;;;;;;7.03;4.70;;;;;;;7.71;100.00;94711.72;5156762;27;20576;-79
2022/09/19 02:33:28;;;;;;;6.93;5.20;;;;;;;7.70;100.00;94694.63;5156512;27;20199;-79
2022/09/19 02:36:03;;;;;;;9.33;5.90;;;;;;;7.70;100.00;94699.81;5156746;27;20205;-79
2022/09/19 02:38:36;;;;;;;7.87;5.73;;;;;;;7.66;100.00;94696.81;5156803;27;20194;-79
2022/09/19 02:41:09;;;;;;;7.00;5.10;;;;;;;7.63;100.00;94691.22;5156706;27;20217;-79
2022/09/19 02:43:46;;;;;;;7.93;4.67;;;;;;;7.56;100.00;94695.63;5149541;27;20190;-74
2022/09/19 02:46:22;;;;;;;7.57;4.87;;;;;;;7.52;100.00;94702.16;5156249;27;20834;-77
2022/09/19 02:48:57;;;;;;;5.07;4.57;;;;;;;7.57;100.00;94698.00;5151689;27;20717;-77
2022/09/19 02:51:27;;;;;;;10.53;6.20;;;;;;;7.48;100.00;94682.88;5156378;27;20201;-78
2022/09/19 02:53:59;;;;;;;9.37;6.30;;;;;;;7.49;100.00;94685.28;5149242;27;20218;-78
2022/09/19 02:56:31;;;;;;;9.57;5.63;;;;;;;7.54;100.00;94702.75;5144408;27;20223;-77
2022/09/19 02:59:03;;;;;;;10.40;5.27;;;;;;;7.50;100.00;94694.63;5151181;27;20227;-78
2022/09/19 03:01:34;;;;;;;9.90;5.70;;;;;;;7.45;100.00;94697.00;5155247;27;20206;-76
2022/09/19 03:04:12;;;;;;;18.70;9.90;;;;;;;7.48;100.00;94706.13;5155586;27;20285;-75
2022/09/19 03:06:43;;;;;;;14.37;9.27;;;;;;;7.42;100.00;94697.38;5155735;27;20202;-75
2022/09/19 03:09:13;;;;;;;17.33;8.80;;;;;;;7.38;100.00;94699.59;5124884;27;20630;-73
2022/09/19 03:11:46;;;;;;;16.63;8.07;;;;;;;7.40;100.00;94702.75;5156454;27;20203;-73
2022/09/19 03:14:13;;;;;;;12.00;8.10;;;;;;;7.40;100.00;94692.41;5155256;27;20194;-73
2022/09/19 03:16:45;;;;;;;13.70;7.83;;;;;;;7.36;100.00;94696.38;5133917;27;20199;-75
2022/09/19 03:19:12;;;;;;;15.33;7.27;;;;;;;7.29;100.00;94689.63;5153480;27;20270;-75
2022/09/19 03:21:40;;;;;;;13.90;7.90;;;;;;;7.28;100.00;94699.16;5155516;27;20610;-75
2022/09/19 03:24:08;;;;;;;15.93;7.23;;;;;;;7.26;100.00;94702.94;5150454;27;20202;-74
2022/09/19 03:26:37;;;;;;;12.90;7.37;;;;;;;7.24;100.00;94697.94;5155453;27;20213;-74
2022/09/19 03:29:06;;;;;;;11.27;7.97;;;;;;;7.25;100.00;94698.75;5154989;27;20660;-74
2022/09/19 03:31:33;;;;;;;17.27;8.30;;;;;;;7.17;100.00;94699.75;5155606;27;20195;-74
2022/09/19 03:34:02;;;;;;;14.97;8.50;;;;;;;7.18;100.00;94697.97;5151800;27;20630;-74
2022/09/19 03:36:33;;;;;;;17.93;8.57;;;;;;;7.16;100.00;94703.31;5145089;27;20202;-74
2022/09/19 03:39:01;;;;;;;15.13;7.77;;;;;;;7.12;100.00;94694.38;5147116;27;20199;-75
2022/09/19 03:41:31;;;;;;;15.63;6.80;;;;;;;6.98;100.00;94689.34;5153341;27;20681;-74
2022/09/19 03:44:01;;;;;;;13.20;7.27;;;;;;;6.85;100.00;94683.16;5154672;27;20206;-75
2022/09/19 03:46:30;;;;;;;11.33;7.23;;;;;;;6.88;100.00;94676.00;5155278;27;20202;-74
2022/09/19 03:49:00;;;;;;;15.70;8.83;;;;;;;6.88;100.00;94671.63;5147567;27;20657;-74
2022/09/19 03:51:30;;;;;;;13.80;9.00;;;;;;;6.91;100.00;94679.00;5151444;27;20260;-74
2022/09/19 03:53:57;;;;;;;14.73;8.33;;;;;;;7.00;100.00;94671.88;5152102;27;20267;-76
2022/09/19 03:56:24;;;;;;;14.13;8.03;;;;;;;7.02;100.00;94677.63;5148051;27;20195;-74
2022/09/19 03:58:51;;;;;;;17.07;8.03;;;;;;;7.02;100.00;94669.88;5154448;27;20203;-74
2022/09/19 04:01:18;;;;;;;13.37;8.13;;;;;;;7.01;100.00;94668.31;5154634;27;20705;-74
2022/09/19 04:03:45;;;;;;;14.20;8.07;;;;;;;7.04;100.00;94662.75;5154175;27;20202;-74
2022/09/19 04:06:12;;;;;;;17.30;8.33;;;;;;;7.02;100.00;94662.13;5147394;27;20681;-74
2022/09/19 04:08:41;;;;;;;14.93;8.07;;;;;;;7.03;100.00;94659.38;5154804;27;20209;-74
2022/09/19 04:11:08;;;;;;;14.60;8.67;;;;;;;7.11;100.00;94661.75;5153737;27;20568;-74
2022/09/19 04:13:35;;;;;;;17.07;9.37;;;;;;;7.07;100.00;94664.94;5154110;27;20212;-73
2022/09/19 04:16:05;;;;;;;15.83;8.70;;;;;;;7.10;100.00;94665.31;5137414;27;20203;-76
2022/09/19 04:18:34;;;;;;;18.80;9.43;;;;;;;7.11;100.00;94666.94;5133139;27;20195;-76
2022/09/19 04:21:03;;;;;;;17.23;9.63;;;;;;;7.12;100.00;94672.91;5141129;27;20317;-78
2022/09/19 04:23:30;;;;;;;15.97;9.00;;;;;;;7.09;100.00;94670.69;5127765;27;20200;-76
2022/09/19 04:26:03;;;;;;;23.70;10.00;;;;;;;7.05;100.00;94672.88;5146189;27;20222;-78
2022/09/19 04:28:31;;;;;;;18.50;10.70;;;;;;;6.90;100.00;94641.22;5056629;27;20885;-75
2022/09/19 04:30:58;;;;;;;19.03;10.40;;;;;;;7.08;100.00;94663.94;5122747;27;20199;-75
2022/09/19 04:33:25;;;;;;;20.43;9.23;;;;;;;7.11;100.00;94663.53;5127783;27;20214;-76
2022/09/19 04:35:52;;;;;;;22.90;12.67;;;;;;;7.13;100.00;94669.34;5129779;27;20302;-73
2022/09/19 04:38:20;;;;;;;17.50;10.53;;;;;;;7.17;100.00;94679.06;5133243;27;20204;-74
2022/09/19 04:40:48;;;;;;;16.27;10.50;;;;;;;7.13;100.00;94670.09;5130554;27;20207;-74
2022/09/19 04:43:18;;;;;;;20.03;9.83;;;;;;;7.21;100.00;94664.78;5135012;27;20674;-75
2022/09/19 04:45:48;;;;;;;23.23;10.83;;;;;;;7.20;100.00;94665.75;5131543;27;20215;-77
2022/09/19 04:48:15;;;;;;;25.43;11.53;;;;;;;7.27;100.00;94665.78;5131597;27;20207;-76
2022/09/19 04:50:44;;;;;;;26.47;11.53;;;;;;;7.26;100.00;94670.13;5136592;27;20199;-77
2022/09/19 04:53:16;;;;;;;16.10;7.57;;;;;;;7.20;100.00;94667.53;5129135;27;20246;-76
2022/09/19 04:55:43;;;;;;;17.27;7.80;;;;;;;7.01;100.00;94663.13;5134505;27;20227;-76
2022/09/19 04:58:10;;;;;;;15.20;9.27;;;;;;;7.00;100.00;94664.13;5129146;27;20303;-76
2022/09/19 05:00:39;;;;;;;20.43;10.37;;;;;;;7.04;100.00;94668.69;5134824;27;20223;-76
2022/09/19 05:03:08;;;;;;;21.13;11.57;;;;;;;7.14;100.00;94671.69;5130482;27;20222;-76
2022/09/19 05:05:36;;;;;;;25.27;11.10;;;;;;;7.23;100.00;94669.72;5124787;27;20215;-75
2022/09/19 05:08:05;;;;;;;20.17;10.40;;;;;;;7.28;100.00;94667.34;5131877;27;20278;-74
2022/09/19 05:10:33;;;;;;;19.33;9.47;;;;;;;7.38;100.00;94668.56;5127150;27;20214;-73
2022/09/19 05:13:00;;;;;;;19.90;10.37;;;;;;;7.43;100.00;94673.13;5133894;27;20547;-74
2022/09/19 05:15:27;;;;;;;22.93;9.90;;;;;;;7.47;100.00;94674.34;5126916;27;20798;-74
2022/09/19 05:17:56;;;;;;;24.57;11.50;;;;;;;7.54;100.00;94677.72;5134293;27;20199;-74
2022/09/19 05:20:25;;;;;;;26.10;12.20;;;;;;;7.58;100.00;94676.31;5130751;27;20203;-73
2022/09/19 05:22:58;;;;;;;22.97;11.83;;;;;;;7.63;100.00;94679.09;5128619;27;20548;-73
2022/09/19 05:25:28;;;;;;;27.67;13.03;;;;;;;7.63;100.00;94680.88;5122918;27;20825;-74
2022/09/19 05:28:05;;;;;;;23.37;12.33;;;;;;;7.69;100.00;94680.91;5131737;27;20218;-73
2022/09/19 05:30:33;;;;;;;20.43;11.60;;;;;;;7.79;100.00;94686.44;5130560;27;20210;-73
2022/09/19 05:33:02;;;;;;;18.87;10.07;;;;;;;7.91;100.00;94684.84;5126890;27;20656;-73
2022/09/19 05:35:30;;;;;;;16.87;9.03;;;;;;;7.94;100.00;94691.41;5133141;27;20276;-74
2022/09/19 05:37:57;;;;;;;12.43;7.50;;;;;;;8.04;100.00;94691.03;5129649;27;20198;-74
2022/09/19 05:40:24;;;;;;;10.23;7.13;;;;;;;8.02;100.00;94686.06;5127229;27;20276;-74
2022/09/19 05:42:54;;;;;;;12.13;7.17;;;;;;;8.05;100.00;94695.22;5133992;27;20251;-75
2022/09/19 05:45:22;;;;;;;13.67;7.17;;;;;;;8.11;100.00;94691.81;5127950;27;20242;-74
2022/09/19 05:47:49;;;;;;;11.13;6.57;;;;;;;8.17;100.00;94689.19;5132543;27;20210;-74
2022/09/19 05:50:17;;;;;;;12.03;7.10;;;;;;;8.20;100.00;94688.81;5128720;27;20203;-73
2022/09/19 05:55:30;;;;;;;10.80;6.50;;;;;;;8.23;100.00;94675.47;5120055;27;20202;-74
2022/09/19 05:57:58;;;;;;;9.13;6.17;;;;;;;8.30;100.00;94672.88;5129682;27;20195;-73
2022/09/19 06:00:27;;;;;;;9.60;6.13;;;;;;;8.36;100.00;94679.84;5127867;27;20207;-74
2022/09/19 06:02:56;;;;;;;15.97;6.80;;;;;;;8.41;100.00;94685.19;5129953;27;20199;-74
2022/09/19 06:05:25;;;;;;;13.03;6.97;;;;;;;8.40;100.00;94687.00;5129177;27;21552;-74
2022/09/19 06:07:56;;;;;;;11.50;6.50;;;;;;;8.43;100.00;94691.75;5125349;27;20211;-74
2022/09/19 06:10:23;;;;;;;11.47;6.90;;;;;;;8.43;100.00;94686.59;5127352;27;20590;-74
2022/09/19 06:12:50;;;;;;;11.03;7.23;;;;;;;8.49;100.00;94687.56;5128143;27;20211;-73
2022/09/19 06:15:17;;;;;;;14.93;7.27;;;;;;;8.38;100.00;94673.47;5130383;27;20222;-74
2022/09/19 06:17:46;;;;;;;11.27;7.80;;;;;;;8.52;100.00;94690.56;5124891;27;20551;-74
2022/09/19 06:20:14;;;;;;;16.13;8.17;;;;;;;8.54;100.00;94696.31;5132544;27;20684;-74
2022/09/19 06:22:43;;;;;;;17.63;8.57;;;;;;;8.50;100.00;94691.75;5126846;27;20195;-75
2022/09/19 06:25:10;;;;;;;12.97;8.80;;;;;;;8.59;100.00;94693.13;5129938;27;20223;-74
2022/09/19 06:27:37;;;;;;;14.40;8.10;;;;;;;8.64;100.00;94689.91;5129439;27;20210;-74
2022/09/19 06:30:05;;;;;;;17.33;8.83;;;;;;;8.63;100.00;94693.53;5114637;27;20191;-74
2022/09/19 06:32:32;;;;;;;15.23;8.47;;;;;;;8.69;100.00;94693.47;5129668;28;20199;-74
2022/09/19 06:34:59;;;;;;;13.17;8.67;;;;;;;8.67;100.00;94686.91;5128721;28;20199;-74
2022/09/19 06:37:26;;;;;;;15.93;8.57;;;;;;;8.81;100.00;94689.25;5136253;27;20285;-75
2022/09/19 06:39:55;;;;;;;16.20;9.40;;;;;;;8.81;100.00;94693.63;5134574;27;20199;-74
2022/09/19 06:42:22;;;;;;;14.07;8.63;;;;;;;8.84;100.00;94693.22;5123867;27;20190;-74
2022/09/19 06:44:49;;;;;;;15.40;9.10;;;;;;;8.81;100.00;94686.66;5150274;27;20213;-74
2022/09/19 06:47:16;;;;;;;21.30;8.93;;;;;;;8.89;100.00;94690.78;5150640;27;20223;-71
2022/09/19 06:49:43;;;;;;;16.27;8.40;;;;;;;8.98;100.00;94692.16;5150220;27;20203;-70
2022/09/19 06:52:10;;;;;;;14.40;8.83;;;;;;;9.05;100.00;94688.53;5134315;27;20718;-70
2022/09/19 06:54:36;;;;;;;12.00;8.33;;;;;;;9.06;100.00;94684.94;5142293;27;20199;-70
2022/09/19 06:57:05;;;;;;;17.50;9.00;;;;;;;9.15;100.00;94687.31;5147950;27;20282;-69
2022/09/19 06:59:31;;;;;;;12.90;8.47;;;;;;;9.22;99.64;94683.66;5150564;27;20283;-72
2022/09/19 07:01:59;;;;;;;14.67;7.93;;;;;;;9.21;99.20;94681.25;5150601;27;20210;-72
2022/09/19 07:04:26;;;;;;;12.47;8.90;;;;;;;9.22;99.93;94672.50;5150508;27;20664;-72
2022/09/19 07:06:53;;;;;;;16.43;8.70;;;;;;;9.28;100.00;94680.25;5144713;27;20607;-72
2022/09/19 07:09:20;;;;;;;15.07;8.50;;;;;;;9.38;99.22;94669.41;5143407;27;20645;-72
2022/09/19 07:11:47;;;;;;;12.97;7.47;;;;;;;9.42;99.33;94678.34;5133519;27;20207;-73
2022/09/19 07:14:16;;;;;;;21.93;8.83;;;;;;;9.49;98.94;94668.72;5132998;27;20303;-71
2022/09/19 07:16:42;;;;;;;16.73;9.10;;;;;;;9.58;98.12;94664.88;5144179;27;20603;-72
2022/09/19 07:19:09;;;;;;;15.37;8.73;;;;;;;9.64;98.18;94664.00;5136963;27;20199;-81
2022/09/19 07:21:38;;;;;;;14.33;8.93;;;;;;;9.73;97.43;94667.13;5134811;27;20784;-75
2022/09/19 07:24:06;;;;;;;11.17;8.27;;;;;;;9.82;97.02;94671.84;5154474;27;20198;-77
2022/09/19 07:26:33;;;;;;;12.97;8.20;;;;;;;9.92;95.23;94671.38;5153088;27;20221;-75
2022/09/19 07:29:00;;;;;;;12.43;8.10;;;;;;;9.90;93.98;94666.38;5151961;27;20675;-77
2022/09/19 07:31:29;;;;;;;12.93;8.13;;;;;;;10.00;95.04;94665.91;5140305;27;21790;-77
2022/09/19 07:33:56;;;;;;;12.67;7.77;;;;;;;10.06;94.30;94672.84;5135075;27;20226;-78
2022/09/19 07:36:23;;;;;;;14.67;8.10;;;;;;;10.08;93.64;94661.25;5146352;27;20645;-78
2022/09/19 07:38:50;;;;;;;15.17;8.70;;;;;;;10.15;92.21;94654.22;5133276;27;20255;-78
2022/09/19 07:41:18;;;;;;;14.13;8.63;;;;;;;10.14;92.45;94655.22;5150120;27;20203;-83
2022/09/19 07:43:45;;;;;;;10.97;7.93;;;;;;;10.23;92.48;94664.31;5149764;27;20207;-75
2022/09/19 07:46:14;;;;;;;16.20;8.33;;;;;;;10.33;92.19;94661.25;5147611;27;20222;-74
2022/09/19 07:48:43;;;;;;;12.63;7.97;;;;;;;10.43;91.84;94660.72;5153743;27;20203;-75
2022/09/19 07:51:10;;;;;;;12.03;7.77;;;;;;;10.55;90.22;94657.19;5153828;27;20203;-75
2022/09/19 07:53:43;;;;;;;11.90;6.87;;;;;;;10.60;89.95;94657.31;5146459;27;20191;-75
2022/09/19 07:56:11;;;;;;;11.10;6.53;;;;;;;10.63;89.29;94649.09;5145127;27;20663;-75
2022/09/19 07:58:38;;;;;;;10.27;6.40;;;;;;;10.71;89.22;94648.78;5153137;27;20198;-73
2022/09/19 08:01:11;;;;;;;10.83;6.87;;;;;;;10.78;88.83;94643.53;5153588;27;20229;-74
2022/09/19 08:03:46;;;;;;;8.80;6.43;;;;;;;10.94;88.00;94644.72;5147264;27;20737;-74
2022/09/19 08:06:13;;;;;;;8.63;5.97;;;;;;;11.07;86.75;94644.53;5115985;27;20737;-74
2022/09/19 08:15:43;;;;;;;10.80;6.33;;;;;;;11.22;84.58;94634.53;5047386;27;20200;-75
2022/09/19 08:18:13;;;;;;;10.23;6.20;;;;;;;11.34;84.90;94625.72;5140065;27;20218;-75
2022/09/19 08:20:48;;;;;;;11.20;6.80;;;;;;;11.49;85.27;94633.13;5146364;27;20290;-74
2022/09/19 08:23:17;;;;;;;12.93;6.40;;;;;;;11.64;84.57;94630.09;5146753;27;20692;-74
2022/09/19 08:25:49;;;;;;;8.63;6.33;;;;;;;11.78;84.46;94624.47;5145882;27;20202;-76
2022/09/19 08:28:21;;;;;;;12.63;6.50;;;;;;;11.94;83.78;94626.41;5140444;27;20194;-73
2022/09/19 08:30:49;;;;;;;12.73;6.20;;;;;;;12.18;83.06;94624.56;5153190;27;20199;-77
2022/09/19 08:33:16;;;;;;;9.20;6.60;;;;;;;12.34;82.10;94631.72;5153370;27;20251;-74
2022/09/19 08:35:44;;;;;;;10.23;6.03;;;;;;;12.49;80.64;94626.81;5151303;27;20218;-74
2022/09/19 08:38:13;;;;;;;10.37;6.50;;;;;;;12.63;80.22;94626.53;5129806;27;20199;-74
2022/09/19 08:41:09;;;;;;;11.83;5.87;;;;;;;12.83;78.02;94625.13;5135786;27;20210;-74
2022/09/19 08:43:43;;;;;;;8.87;6.17;;;;;;;12.98;78.75;94625.41;5104911;27;20309;-73
2022/09/19 08:46:15;;;;;;;10.20;6.00;;;;;;;13.16;77.46;94619.22;5130529;27;20230;-75
2022/09/19 08:48:52;;;;;;;11.90;6.00;;;;;;;13.32;77.43;94626.31;5133745;27;20886;-75
2022/09/19 08:51:27;;;;;;;10.53;6.07;;;;;;;13.49;76.30;94619.28;5130467;27;20211;-78
2022/09/19 08:54:06;;;;;;;15.10;6.70;;;;;;;13.69;76.27;94625.84;5133694;27;20199;-73
2022/09/19 08:56:33;;;;;;;15.60;6.30;;;;;;;13.91;74.61;94626.72;5132433;27;20222;-75
2022/09/19 08:59:04;;;;;;;10.70;6.00;;;;;;;14.05;75.60;94622.75;5132990;27;20203;-76
2022/09/19 09:01:35;;;;;;;12.27;5.73;;;;;;;14.16;73.04;94617.44;5132027;27;20202;-76
2022/09/19 09:04:17;;;;;;;10.53;5.40;;;;;;;14.31;73.06;94608.22;5132984;27;20203;-77
2022/09/19 09:06:56;;;;;;;11.07;6.00;;;;;;;14.60;72.80;94620.13;5134466;27;20226;-76
2022/09/19 09:09:38;;;;;;;11.30;5.97;;;;;;;14.93;71.94;94619.97;5125740;27;20298;-78
2022/09/19 09:12:14;;;;;;;13.07;5.37;;;;;;;15.16;70.17;94621.53;5133263;27;20207;-78
2022/09/19 09:14:51;;;;;;;7.70;5.30;;;;;;;15.41;71.34;94618.38;5130750;27;20194;-77
2022/09/19 09:17:27;;;;;;;11.80;5.70;;;;;;;15.67;68.89;94620.97;5132009;27;20202;-76
2022/09/19 09:20:08;;;;;;;13.87;5.30;;;;;;;15.86;67.96;94606.47;5132055;27;20202;-77
2022/09/19 09:22:41;;;;;;;10.67;5.07;;;;;;;16.32;68.25;94599.66;5126358;27;20234;-78
2022/09/19 09:25:14;;;;;;;11.30;4.83;;;;;;;16.72;67.20;94599.09;5132687;27;20199;-78
2022/09/19 09:27:50;;;;;;;11.47;4.93;;;;;;;16.97;64.55;94590.50;5130615;27;20208;-77
2022/09/19 09:30:21;;;;;;;11.40;5.27;;;;;;;17.22;63.75;94585.31;5131740;27;20199;-77
2022/09/19 09:32:54;;;;;;;10.53;4.97;;;;;;;17.62;63.58;94578.53;5129746;27;20211;-77
2022/09/19 09:35:31;;;;;;;8.23;4.50;;;;;;;17.85;63.29;94565.66;5136772;27;20203;-77
2022/09/19 09:38:11;;;;;;;11.30;5.00;;;;;;;18.21;61.64;94560.34;5130285;27;20202;-77
2022/09/19 09:43:45;;;;;;;11.63;5.00;;;;;;;18.72;59.73;94574.91;5134449;27;20243;-77
2022/09/19 09:46:22;;;;;;;10.50;4.63;;;;;;;19.02;58.50;94573.97;5128639;27;20361;-77
2022/09/19 09:48:52;;;;;;;8.52;4.60;;;;;;;19.31;57.02;94568.81;5130437;27;20244;-76
2022/09/19 09:51:39;;;;;;;11.02;5.00;;;;;;;19.44;55.47;94573.47;5130625;27;20227;-77
2022/09/19 09:57:11;;;;;;;8.95;4.40;;;;;;;19.96;53.39;94552.47;5106559;27;20199;-77
2022/09/19 10:05:36;;;;;;;7.25;4.40;;;;;;;20.32;53.91;94539.72;5127406;27;20301;-77
2022/09/19 10:08:15;;;;;;;10.85;4.65;;;;;;;20.71;52.04;94542.19;5132258;27;20210;-77
2022/09/19 10:10:45;;;;;;;14.77;4.57;;;;;;;20.97;51.53;94546.06;5130324;27;20208;-77
2022/09/19 10:13:25;;;;;;;7.20;3.83;;;;;;;21.21;48.83;94538.88;5132112;27;20214;-78
2022/09/19 10:15:55;;;;;;;9.15;3.85;;;;;;;21.52;47.71;94541.06;5132915;27;20199;-78
2022/09/19 10:18:26;;;;;;;9.75;4.45;;;;;;;21.66;44.94;94541.91;5125424;27;20203;-76
2022/09/19 10:20:54;;;;;;;9.32;4.65;;;;;;;21.45;44.87;94546.72;5133418;27;20597;-77
2022/09/19 10:23:24;;;;;;;9.95;4.10;;;;;;;21.39;45.22;94539.94;5127346;27;20199;-77
2022/09/19 10:26:00;;;;;;;6.60;4.22;;;;;;;21.35;44.76;94538.97;5134714;27;20201;-77
2022/09/19 10:28:31;;;;;;;10.07;4.13;;;;;;;21.46;46.07;94530.56;5127051;27;20577;-76
2022/09/19 10:31:01;;;;;;;10.10;4.10;;;;;;;21.88;45.80;94529.63;5131314;27;20195;-76
2022/09/19 10:33:38;;;;;;;8.77;3.70;;;;;;;22.39;45.47;94532.16;5131735;27;20210;-77
2022/09/19 10:36:08;;;;;;;8.10;4.10;;;;;;;22.62;43.71;94527.75;5132881;27;20191;-77
2022/09/19 10:38:48;;;;;;;7.68;4.00;;;;;;;22.92;43.46;94519.16;5133190;27;20620;-77
2022/09/19 10:41:22;;;;;;;10.57;4.03;;;;;;;23.18;42.58;94514.88;5128095;27;20204;-77
2022/09/19 10:43:51;;;;;;;7.60;4.07;;;;;;;23.33;41.42;94511.09;5132000;27;20195;-77
2022/09/19 10:46:21;;;;;;;7.43;4.05;;;;;;;22.95;40.86;94507.19;5133385;27;20256;-77
2022/09/19 10:48:55;;;;;;;7.32;3.72;;;;;;;23.39;40.76;94515.25;5132945;27;20199;-76
2022/09/19 10:51:23;;;;;;;15.48;4.03;;;;;;;23.82;41.36;94504.09;5127188;27;20198;-77
2022/09/19 10:53:55;;;;;;;6.57;3.70;;;;;;;23.91;40.63;94497.78;5139235;27;20215;-77
2022/09/19 10:56:27;;;;;;;8.05;3.10;;;;;;;24.34;36.88;94497.97;5129014;27;20203;-77
2022/09/19 10:59:01;;;;;;;6.40;3.45;;;;;;;24.61;39.17;94494.31;5135396;27;20870;-77
2022/09/19 11:01:29;;;;;;;8.27;3.47;;;;;;;24.46;36.95;94492.88;5132260;27;20199;-77
2022/09/19 11:04:03;;;;;;;10.43;3.25;;;;;;;24.31;36.32;94482.66;5134260;27;20251;-77
2022/09/19 11:06:31;;;;;;;5.40;3.38;;;;;;;24.33;36.26;94469.06;5132142;27;20225;-77
2022/09/19 11:08:59;;;;;;;8.77;3.58;;;;;;;24.28;36.25;94469.97;5136547;27;20195;-77
2022/09/19 11:11:36;;;;;;;8.18;3.08;;;;;;;24.72;34.79;94467.13;5138783;27;20202;-78
2022/09/19 11:14:18;;;;;;;10.15;3.22;;;;;;;25.11;34.02;94465.44;5130716;27;20207;-78
2022/09/19 11:17:33;;;;;;;8.73;3.08;;;;;;;25.45;34.12;94472.66;5139229;27;20202;-77
2022/09/19 11:20:23;;;;;;;11.82;3.38;;;;;;;25.89;33.47;94454.41;5112485;27;20198;-77
2022/09/19 11:23:13;;;;;;;4.82;2.78;;;;;;;26.01;30.95;94463.59;5134100;27;20210;-76
2022/09/19 11:25:49;;;;;;;6.43;2.80;;;;;;;26.34;31.49;94465.38;5136568;27;20233;-76
2022/09/19 11:28:29;;;;;;;7.70;2.72;;;;;;;26.61;28.83;94458.78;5131609;27;20253;-77
2022/09/19 11:31:08;;;;;;;6.35;3.10;;;;;;;26.50;28.89;94457.59;5137033;27;20207;-78
2022/09/19 11:33:55;;;;;;;7.00;2.60;;;;;;;26.77;30.24;94449.13;5132096;27;20199;-78
2022/09/19 11:36:31;;;;;;;5.25;2.75;;;;;;;27.30;27.94;94455.66;5130729;27;20275;-78
2022/09/19 11:39:07;;;;;;;5.05;2.53;;;;;;;27.14;25.41;94460.03;5138231;27;20228;-77
2022/09/19 11:41:47;;;;;;;5.97;2.30;;;;;;;27.16;26.11;94447.91;5129918;27;20195;-77
2022/09/19 11:44:46;;;;;;;6.78;3.10;;;;;;;27.35;25.68;94450.91;5131984;27;20910;-77
2022/09/19 11:47:38;;;;;;;10.45;2.63;;;;;;;26.88;24.52;94447.66;5130553;27;20716;-77
2022/09/19 11:50:30;;;;;;;6.80;2.53;;;;;;;27.07;25.38;94443.78;5129198;27;20199;-77
2022/09/19 11:53:14;;;;;;;6.07;2.45;;;;;;;27.46;24.85;94444.06;5136054;27;20230;-78
2022/09/19 11:55:50;;;;;;;4.93;2.55;;;;;;;27.74;25.98;94443.47;5130447;27;20196;-77
2022/09/19 11:58:29;;;;;;;8.85;2.50;;;;;;;27.93;25.74;94443.75;5128296;27;20274;-78
2022/09/19 12:01:07;;;;;;;7.13;2.50;;;;;;;28.13;23.98;94443.69;5129726;27;20203;-77
2022/09/19 12:03:50;;;;;;;6.82;2.58;;;;;;;28.46;24.50;94438.22;5134035;27;20199;-82
2022/09/19 12:06:32;;;;;;;7.05;2.67;;;;;;;28.63;24.70;94434.53;5134871;27;20221;-78
2022/09/19 12:09:17;;;;;;;5.38;2.38;;;;;;;28.72;25.49;94427.19;5128027;27;20741;-78
2022/09/19 12:11:50;;;;;;;7.90;2.63;;;;;;;28.95;25.77;94420.22;5131804;27;22338;-76
2022/09/19 12:14:22;;;;;;;10.73;2.50;;;;;;;29.09;25.03;94422.53;5130974;27;20318;-76
2022/09/19 12:16:55;;;;;;;7.05;2.60;;;;;;;29.42;23.48;94422.31;5136205;27;20291;-77